Time;durP1;ratioP1;P1;durP2;ratioP2;P2;SDS_P1;SDS_P2;PMS_P1;PMS_P2;Temp;Humidity;BMP_temperature;BMP_pressure;BME280_temperature;BME280_humidity;BME280_pressure;Samples;Min_cycle;Max_cycle;Signal;HPM_P1;HPM_P2
2023/04/04 00:01:18;;;;;;;0.82;0.80;;;3.30;99.90;;;;;;4986740;28;20105;-76
2023/04/04 00:03:44;;;;;;;0.68;0.68;;;3.30;99.90;;;;;;4985403;28;20389;-76
2023/04/04 00:06:09;;;;;;;1.40;1.30;;;3.30;99.90;;;;;;4984648;28;20093;-76
2023/04/04 00:08:35;;;;;;;1.40;1.25;;;3.30;99.90;;;;;;4986051;28;20069;-76
2023/04/04 00:11:01;;;;;;;1.10;1.10;;;3.30;99.90;;;;;;4985152;28;20042;-76
2023/04/04 00:13:27;;;;;;;0.35;0.35;;;3.20;99.90;;;;;;4985691;28;20100;-76
2023/04/04 00:15:53;;;;;;;1.92;1.80;;;3.20;99.90;;;;;;4984748;28;20061;-76
2023/04/04 00:18:18;;;;;;;0.68;0.68;;;3.20;99.90;;;;;;4986401;28;20118;-76
2023/04/04 00:20:44;;;;;;;1.42;0.93;;;3.20;99.90;;;;;;4984889;28;20117;-76
2023/04/04 00:23:10;;;;;;;0.77;0.77;;;3.20;99.90;;;;;;4984781;28;20042;-76
2023/04/04 00:25:36;;;;;;;1.02;0.90;;;3.20;99.90;;;;;;4986204;28;20420;-76
2023/04/04 00:28:02;;;;;;;1.52;1.42;;;3.20;99.90;;;;;;4984702;28;20042;-77
2023/04/04 00:30:31;;;;;;;2.88;0.90;;;3.20;99.90;;;;;;4986460;28;20118;-76
2023/04/04 00:32:57;;;;;;;1.38;1.23;;;3.20;99.90;;;;;;4984949;28;20045;-76
2023/04/04 00:35:23;;;;;;;1.97;1.07;;;3.10;99.90;;;;;;4984500;28;20046;-76
2023/04/04 00:37:48;;;;;;;1.53;1.43;;;3.20;99.90;;;;;;4985956;28;20138;-76
2023/04/04 00:40:14;;;;;;;0.43;0.43;;;3.20;99.90;;;;;;4984118;28;20134;-76
2023/04/04 00:42:40;;;;;;;1.33;1.13;;;3.20;99.90;;;;;;4984225;28;20575;-76
2023/04/04 00:45:07;;;;;;;2.40;1.37;;;3.10;99.90;;;;;;4984231;28;20098;-76
2023/04/04 00:47:33;;;;;;;1.20;1.20;;;3.10;99.90;;;;;;4976582;28;20126;-76
2023/04/04 00:49:59;;;;;;;1.67;0.80;;;3.10;99.90;;;;;;4965318;28;20413;-76
2023/04/04 00:52:25;;;;;;;1.87;1.77;;;3.10;99.90;;;;;;4976525;28;20054;-76
2023/04/04 00:54:53;;;;;;;0.77;0.77;;;3.00;99.90;;;;;;4985475;28;20054;-76
2023/04/04 00:57:18;;;;;;;1.07;1.07;;;3.00;99.90;;;;;;4983634;28;20050;-76
2023/04/04 00:59:44;;;;;;;0.40;0.40;;;3.00;99.90;;;;;;4983568;28;20120;-76
2023/04/04 01:02:10;;;;;;;1.37;1.33;;;3.00;99.90;;;;;;4985171;28;20185;-76
2023/04/04 01:04:36;;;;;;;1.60;1.50;;;3.00;99.90;;;;;;4983989;28;20467;-76
2023/04/04 01:07:02;;;;;;;5.80;3.40;;;2.90;99.90;;;;;;4984509;28;20042;-76
2023/04/04 01:09:28;;;;;;;1.70;1.07;;;2.90;99.90;;;;;;4984629;28;20413;-76
2023/04/04 01:11:55;;;;;;;0.63;0.63;;;2.90;99.90;;;;;;4983515;28;20057;-76
2023/04/04 01:14:21;;;;;;;1.03;0.60;;;2.90;99.90;;;;;;4982775;28;20034;-76
2023/04/04 01:16:49;;;;;;;1.03;1.03;;;2.90;99.90;;;;;;4983250;28;20374;-76
2023/04/04 01:19:25;;;;;;;6.00;1.47;;;2.90;99.90;;;;;;4985090;28;20042;-76
2023/04/04 01:21:52;;;;;;;1.40;1.30;;;2.90;99.90;;;;;;4984376;28;20050;-76
2023/04/04 01:24:20;;;;;;;1.20;1.10;;;2.90;99.90;;;;;;4984008;28;20899;-76
2023/04/04 01:26:46;;;;;;;2.67;1.60;;;2.90;99.90;;;;;;4977935;28;20043;-76
2023/04/04 01:29:12;;;;;;;1.73;1.63;;;2.80;99.90;;;;;;4981542;28;20521;-76
2023/04/04 01:31:37;;;;;;;1.60;1.40;;;2.80;99.90;;;;;;4983332;28;20031;-76
2023/04/04 01:34:27;;;;;;;1.33;1.33;;;2.80;99.90;;;;;;4984727;28;20456;-76
2023/04/04 01:37:05;;;;;;;1.13;1.13;;;2.80;99.90;;;;;;4984833;28;20050;-76
2023/04/04 01:39:38;;;;;;;0.50;0.50;;;2.80;99.90;;;;;;4983656;28;20400;-76
2023/04/04 01:42:06;;;;;;;1.40;1.30;;;2.80;99.90;;;;;;4984628;28;20092;-76
2023/04/04 01:44:32;;;;;;;2.80;2.22;;;2.80;99.90;;;;;;4982673;28;20378;-76
2023/04/04 01:46:58;;;;;;;2.00;1.23;;;2.80;99.90;;;;;;4984807;28;20042;-76
2023/04/04 01:49:23;;;;;;;2.67;0.93;;;2.80;99.90;;;;;;4984191;28;20400;-76
2023/04/04 01:51:52;;;;;;;1.03;0.87;;;2.70;99.90;;;;;;4984435;28;20373;-76
2023/04/04 01:54:18;;;;;;;2.57;1.00;;;2.70;99.90;;;;;;4983420;28;20122;-76
2023/04/04 01:56:45;;;;;;;4.23;1.93;;;2.80;99.90;;;;;;4984806;28;20121;-76
2023/04/04 01:59:10;;;;;;;3.47;1.00;;;2.80;99.90;;;;;;4981952;28;20101;-76
2023/04/04 02:01:37;;;;;;;2.67;1.37;;;2.70;99.90;;;;;;4984381;28;20469;-76
2023/04/04 02:04:03;;;;;;;1.43;1.20;;;2.70;99.90;;;;;;4984595;28;20045;-76
2023/04/04 02:06:29;;;;;;;5.70;1.83;;;2.70;99.90;;;;;;4983808;28;20046;-76
2023/04/04 02:08:55;;;;;;;0.70;0.70;;;2.70;99.90;;;;;;4984877;28;20038;-76
2023/04/04 02:11:24;;;;;;;1.03;1.03;;;2.70;99.90;;;;;;4983878;28;20113;-76
2023/04/04 02:13:50;;;;;;;1.47;1.40;;;2.60;99.90;;;;;;4983642;28;20093;-76
2023/04/04 02:16:15;;;;;;;4.67;2.50;;;2.60;99.90;;;;;;4982687;28;20086;-76
2023/04/04 02:18:41;;;;;;;1.40;1.30;;;2.60;99.90;;;;;;4983041;28;20104;-76
2023/04/04 02:21:07;;;;;;;1.00;0.90;;;2.60;99.90;;;;;;4982945;28;20053;-76
2023/04/04 02:23:32;;;;;;;1.27;1.27;;;2.60;99.90;;;;;;4983939;28;20042;-76
2023/04/04 02:25:58;;;;;;;2.73;1.70;;;2.60;99.90;;;;;;4983896;28;20066;-76
2023/04/04 02:28:24;;;;;;;0.80;0.80;;;2.50;99.90;;;;;;4985110;28;20042;-76
2023/04/04 02:30:49;;;;;;;2.70;2.50;;;2.50;99.90;;;;;;4970446;28;20046;-76
2023/04/04 02:33:15;;;;;;;1.70;1.53;;;2.50;99.90;;;;;;4987777;28;20088;-76
2023/04/04 02:35:41;;;;;;;1.90;1.80;;;2.40;99.90;;;;;;4988142;28;20134;-76
2023/04/04 02:38:07;;;;;;;2.10;1.97;;;2.40;99.90;;;;;;4987524;28;20125;-76
2023/04/04 02:40:32;;;;;;;2.03;1.93;;;2.40;99.90;;;;;;4987699;28;20038;-76
2023/04/04 02:42:58;;;;;;;2.87;2.67;;;2.40;99.90;;;;;;4987424;28;20046;-76
2023/04/04 02:45:24;;;;;;;0.77;0.47;;;2.30;99.90;;;;;;4986798;28;20060;-76
2023/04/04 02:47:50;;;;;;;2.70;1.17;;;2.30;99.90;;;;;;4976559;28;20047;-76
2023/04/04 02:50:16;;;;;;;2.80;2.57;;;2.30;99.90;;;;;;4980681;28;20042;-76
2023/04/04 02:52:41;;;;;;;3.10;1.57;;;2.30;99.90;;;;;;4986143;28;20046;-76
2023/04/04 02:55:08;;;;;;;1.47;1.47;;;2.30;99.90;;;;;;4986049;28;20054;-76
2023/04/04 02:57:34;;;;;;;15.40;2.63;;;2.30;99.90;;;;;;4985081;28;20043;-76
2023/04/04 03:00:00;;;;;;;2.23;2.13;;;2.20;99.90;;;;;;4987587;28;20260;-76
2023/04/04 03:02:25;;;;;;;1.20;1.20;;;2.20;99.90;;;;;;4987349;28;20633;-76
2023/04/04 03:04:51;;;;;;;1.33;1.33;;;2.20;99.90;;;;;;4987881;28;20077;-76
2023/04/04 03:07:17;;;;;;;2.77;2.03;;;2.20;99.90;;;;;;4985930;28;20042;-77
2023/04/04 03:09:44;;;;;;;2.10;1.90;;;2.20;99.90;;;;;;4970049;28;20058;-77
2023/04/04 03:12:10;;;;;;;2.63;2.43;;;2.10;99.90;;;;;;4986582;28;20046;-76
2023/04/04 03:14:36;;;;;;;1.57;1.50;;;2.10;99.90;;;;;;4986145;28;20086;-76
2023/04/04 03:17:02;;;;;;;2.27;2.13;;;2.10;99.90;;;;;;4985975;28;20404;-77
2023/04/04 03:19:27;;;;;;;1.73;0.60;;;2.00;99.90;;;;;;4986457;28;20053;-77
2023/04/04 03:21:53;;;;;;;3.40;2.83;;;2.00;99.90;;;;;;4987466;28;20042;-76
2023/04/04 03:24:19;;;;;;;2.00;1.87;;;2.00;99.90;;;;;;4986576;28;20124;-77
2023/04/04 03:26:44;;;;;;;2.07;1.93;;;2.00;99.90;;;;;;4987226;28;20424;-77
2023/04/04 03:29:10;;;;;;;4.17;2.47;;;1.90;99.90;;;;;;4984418;28;20042;-77
2023/04/04 03:31:35;;;;;;;2.07;1.93;;;1.90;99.90;;;;;;4985656;28;20038;-76
2023/04/04 03:34:03;;;;;;;0.97;0.97;;;1.90;99.90;;;;;;4985370;28;20512;-77
2023/04/04 03:36:29;;;;;;;1.43;1.33;;;1.90;99.90;;;;;;4987508;28;20097;-76
2023/04/04 03:38:55;;;;;;;1.83;1.73;;;1.90;99.90;;;;;;4985630;28;20483;-77
2023/04/04 03:41:20;;;;;;;1.73;1.63;;;1.90;99.90;;;;;;4969233;28;20054;-77
2023/04/04 03:43:47;;;;;;;2.23;1.97;;;1.90;99.90;;;;;;4968406;28;20049;-76
2023/04/04 03:46:12;;;;;;;3.83;3.03;;;1.90;99.90;;;;;;4986766;28;20117;-77
2023/04/04 03:48:38;;;;;;;2.20;1.30;;;1.90;99.90;;;;;;4968232;28;20470;-76
2023/04/04 03:51:04;;;;;;;3.33;2.03;;;1.90;99.90;;;;;;4980187;28;20039;-77
2023/04/04 03:53:30;;;;;;;0.70;0.70;;;1.90;99.90;;;;;;4986832;28;20050;-77
2023/04/04 03:55:56;;;;;;;1.80;1.60;;;1.80;99.90;;;;;;4986900;28;20046;-77
2023/04/04 03:58:22;;;;;;;1.80;1.70;;;1.80;99.90;;;;;;4983979;28;20042;-76
2023/04/04 04:00:48;;;;;;;1.47;1.37;;;1.80;99.90;;;;;;4986595;28;20402;-76
2023/04/04 04:03:14;;;;;;;4.70;3.00;;;1.90;99.90;;;;;;4968592;28;20050;-77
2023/04/04 04:05:40;;;;;;;0.70;0.70;;;1.90;99.90;;;;;;4986248;28;20042;-77
2023/04/04 04:08:05;;;;;;;1.43;1.43;;;1.80;99.90;;;;;;4986087;28;20520;-77
2023/04/04 04:10:32;;;;;;;1.97;1.87;;;1.80;99.90;;;;;;4985019;28;20123;-77
2023/04/04 04:12:58;;;;;;;2.73;2.53;;;1.80;99.90;;;;;;4986108;28;20058;-76
2023/04/04 04:15:23;;;;;;;1.70;1.60;;;1.80;99.90;;;;;;4985599;28;20073;-77
2023/04/04 04:17:49;;;;;;;5.07;3.40;;;1.70;99.90;;;;;;4985273;28;20073;-77
2023/04/04 04:20:15;;;;;;;1.23;1.23;;;1.80;99.90;;;;;;4969630;28;20072;-77
2023/04/04 04:22:50;;;;;;;7.30;2.30;;;1.70;99.90;;;;;;4984814;28;20049;-77
2023/04/04 04:25:16;;;;;;;1.70;1.60;;;1.70;99.90;;;;;;4985722;28;20049;-77
2023/04/04 04:27:42;;;;;;;2.10;1.63;;;1.70;99.90;;;;;;4984991;28;20114;-76
2023/04/04 04:30:08;;;;;;;2.27;2.03;;;1.70;99.90;;;;;;4985256;28;20130;-77
2023/04/04 04:32:34;;;;;;;1.17;1.17;;;1.70;99.90;;;;;;4985519;28;20489;-77
2023/04/04 04:34:59;;;;;;;5.60;2.37;;;1.70;99.90;;;;;;4985869;28;20048;-76
2023/04/04 04:37:25;;;;;;;2.00;1.33;;;1.70;99.90;;;;;;4985511;28;20492;-77
2023/04/04 04:39:52;;;;;;;4.97;1.77;;;1.70;99.90;;;;;;4984058;28;20117;-77
2023/04/04 04:42:18;;;;;;;2.93;2.53;;;1.60;99.90;;;;;;4984556;28;20034;-76
2023/04/04 04:44:43;;;;;;;3.43;2.37;;;1.60;99.90;;;;;;4985360;28;20137;-77
2023/04/04 04:47:09;;;;;;;3.80;3.23;;;1.60;99.90;;;;;;4985201;28;20048;-77
2023/04/04 04:49:34;;;;;;;1.73;1.63;;;1.60;99.90;;;;;;4966736;28;20481;-77
2023/04/04 04:52:01;;;;;;;1.87;1.43;;;1.60;99.90;;;;;;4984885;28;20581;-76
2023/04/04 04:54:27;;;;;;;1.63;1.53;;;1.60;99.90;;;;;;4983759;28;20600;-76
2023/04/04 04:56:52;;;;;;;2.40;2.20;;;1.60;99.90;;;;;;4985288;28;20058;-77
2023/04/04 04:59:18;;;;;;;1.60;1.50;;;1.60;99.90;;;;;;4983057;28;20046;-76
2023/04/04 05:01:44;;;;;;;1.27;1.20;;;1.60;99.90;;;;;;4984222;28;20053;-76
2023/04/04 05:04:09;;;;;;;9.23;1.73;;;1.60;99.90;;;;;;4977291;28;20049;-77
2023/04/04 05:06:37;;;;;;;1.90;1.00;;;1.60;99.90;;;;;;4967218;28;20038;-80
2023/04/04 05:09:03;;;;;;;3.23;2.10;;;1.60;99.90;;;;;;4985322;28;20034;-78
2023/04/04 05:11:28;;;;;;;2.97;2.67;;;1.60;99.90;;;;;;4985114;28;20100;-75
2023/04/04 05:13:54;;;;;;;2.20;2.07;;;1.60;99.90;;;;;;4984209;28;20038;-75
2023/04/04 05:16:19;;;;;;;1.03;1.03;;;1.60;99.90;;;;;;4985286;28;20489;-75
2023/04/04 05:18:45;;;;;;;1.97;1.63;;;1.60;99.90;;;;;;4982524;28;20046;-75
2023/04/04 05:21:11;;;;;;;1.83;1.73;;;1.60;99.90;;;;;;4967100;28;20224;-78
2023/04/04 05:23:37;;;;;;;2.83;2.73;;;1.60;99.90;;;;;;4984711;28;20430;-78
2023/04/04 05:26:02;;;;;;;1.93;1.90;;;1.60;99.90;;;;;;4984483;28;20043;-78
2023/04/04 05:28:28;;;;;;;2.70;2.47;;;1.60;99.90;;;;;;4978966;28;20038;-78
2023/04/04 05:30:53;;;;;;;2.20;1.93;;;1.60;99.90;;;;;;4984332;28;20045;-78
2023/04/04 05:33:19;;;;;;;2.60;2.40;;;1.60;99.90;;;;;;4982826;28;20082;-77
2023/04/04 05:35:45;;;;;;;0.83;0.83;;;1.60;99.90;;;;;;4981435;28;20047;-77
2023/04/04 05:38:11;;;;;;;1.67;1.57;;;1.60;99.90;;;;;;4983807;28;20131;-77
2023/04/04 05:40:36;;;;;;;2.60;2.40;;;1.60;99.90;;;;;;4984693;28;20038;-78
2023/04/04 05:43:03;;;;;;;2.30;2.03;;;1.60;99.90;;;;;;4983127;28;20130;-78
2023/04/04 05:45:30;;;;;;;2.60;1.93;;;1.70;99.90;;;;;;4972858;28;20046;-77
2023/04/04 05:47:55;;;;;;;2.30;2.20;;;1.70;99.90;;;;;;4984873;28;20046;-78
2023/04/04 05:50:21;;;;;;;2.63;2.47;;;1.70;99.90;;;;;;4984273;28;20046;-77
2023/04/04 05:52:47;;;;;;;2.17;1.97;;;1.70;99.90;;;;;;4983129;28;20034;-76
2023/04/04 05:55:12;;;;;;;3.30;2.97;;;1.70;99.90;;;;;;4978214;28;20105;-77
2023/04/04 05:57:46;;;;;;;2.73;2.07;;;1.70;99.90;;;;;;4973229;28;20045;-78
2023/04/04 06:00:12;;;;;;;1.67;1.57;;;1.80;99.90;;;;;;4984694;28;20503;-78
2023/04/04 06:02:38;;;;;;;1.27;1.10;;;1.80;99.90;;;;;;4984871;28;20042;-82
2023/04/04 06:05:04;;;;;;;4.10;2.47;;;1.80;99.90;;;;;;4986147;28;20042;-78
2023/04/04 06:07:30;;;;;;;3.23;3.03;;;1.80;99.90;;;;;;4987590;28;20048;-78
2023/04/04 06:09:56;;;;;;;2.87;2.67;;;1.80;99.90;;;;;;4978181;28;20504;-80
2023/04/04 06:12:21;;;;;;;1.53;1.53;;;1.80;99.90;;;;;;4968484;28;20051;-78
2023/04/04 06:14:47;;;;;;;1.37;1.27;;;1.90;99.90;;;;;;4969259;28;20054;-78
2023/04/04 06:17:12;;;;;;;2.03;1.93;;;1.90;99.90;;;;;;4986243;28;20497;-78
2023/04/04 06:19:38;;;;;;;4.27;2.23;;;1.90;99.90;;;;;;4984429;28;20034;-78
2023/04/04 06:22:03;;;;;;;2.37;2.17;;;2.00;99.90;;;;;;4985249;28;20042;-77
2023/04/04 06:24:29;;;;;;;1.23;1.10;;;2.00;99.90;;;;;;4969947;28;20138;-76
2023/04/04 06:26:55;;;;;;;2.47;2.23;;;2.00;99.90;;;;;;4984147;28;20030;-76
2023/04/04 06:29:20;;;;;;;5.50;2.30;;;2.10;99.90;;;;;;4968787;28;20049;-82
2023/04/04 06:31:46;;;;;;;2.97;2.07;;;2.10;99.90;;;;;;4981558;28;20042;-76
2023/04/04 06:34:11;;;;;;;2.30;2.10;;;2.20;99.90;;;;;;4987422;28;20046;-76
2023/04/04 06:36:37;;;;;;;2.37;1.77;;;2.20;99.90;;;;;;4986793;28;20046;-76
2023/04/04 06:39:02;;;;;;;1.27;1.17;;;2.30;99.90;;;;;;4986774;28;20084;-76
2023/04/04 06:41:28;;;;;;;2.10;1.97;;;2.30;99.90;;;;;;4986463;28;20282;-76
2023/04/04 06:43:53;;;;;;;3.43;1.50;;;2.30;99.90;;;;;;4984732;28;20657;-76
2023/04/04 06:46:19;;;;;;;10.67;1.70;;;2.30;99.90;;;;;;4987381;28;20061;-76
2023/04/04 06:48:45;;;;;;;1.80;1.70;;;2.40;99.90;;;;;;4985214;28;20123;-76
2023/04/04 06:51:11;;;;;;;5.40;2.40;;;2.40;99.90;;;;;;4986709;28;20074;-76
2023/04/04 06:53:37;;;;;;;1.30;1.20;;;2.40;99.90;;;;;;4985094;28;20042;-76
2023/04/04 06:56:03;;;;;;;3.63;1.90;;;2.50;99.90;;;;;;4986552;28;20133;-76
2023/04/04 06:58:29;;;;;;;3.37;2.23;;;2.50;99.90;;;;;;4985326;28;20089;-76
2023/04/04 07:00:55;;;;;;;0.70;0.70;;;2.60;99.90;;;;;;4985435;28;20496;-76
2023/04/04 07:03:22;;;;;;;4.23;3.93;;;2.60;99.90;;;;;;4986611;28;20039;-76
2023/04/04 07:05:48;;;;;;;1.57;1.57;;;2.60;99.90;;;;;;4985952;28;20080;-76
2023/04/04 07:08:14;;;;;;;1.37;1.37;;;2.70;99.90;;;;;;4986845;28;20625;-76
2023/04/04 07:10:40;;;;;;;1.40;1.30;;;2.70;99.90;;;;;;4986069;28;20093;-76
2023/04/04 07:13:05;;;;;;;1.53;1.43;;;2.80;99.90;;;;;;4985216;28;20047;-76
2023/04/04 07:15:31;;;;;;;2.00;1.90;;;2.80;99.90;;;;;;4986664;28;20046;-76
2023/04/04 07:17:56;;;;;;;1.13;1.03;;;2.80;99.90;;;;;;4986312;28;20346;-76
2023/04/04 07:20:22;;;;;;;1.13;1.13;;;2.90;99.90;;;;;;4986249;28;20184;-76
2023/04/04 07:22:48;;;;;;;2.00;1.40;;;2.90;99.90;;;;;;4986600;28;20107;-76
2023/04/04 07:25:13;;;;;;;6.43;1.50;;;2.90;99.90;;;;;;4986619;28;20038;-76
2023/04/04 07:27:42;;;;;;;1.13;1.10;;;2.90;99.90;;;;;;4984722;28;20788;-77
2023/04/04 07:30:08;;;;;;;1.77;1.67;;;3.00;99.90;;;;;;4984497;28;20088;-76
2023/04/04 07:32:34;;;;;;;1.80;1.67;;;3.00;99.90;;;;;;4986097;28;20061;-76
2023/04/04 07:35:00;;;;;;;1.27;1.17;;;3.00;99.90;;;;;;4984577;28;20046;-76
2023/04/04 07:37:26;;;;;;;1.20;1.10;;;3.10;99.90;;;;;;4985182;28;20046;-76
2023/04/04 07:39:52;;;;;;;1.77;1.67;;;3.10;99.90;;;;;;4985976;28;20049;-77
2023/04/04 07:42:24;;;;;;;3.33;1.80;;;3.10;99.90;;;;;;4985048;28;20121;-76
2023/04/04 07:44:53;;;;;;;2.17;1.40;;;3.20;99.90;;;;;;4984486;28;20054;-76
2023/04/04 07:47:19;;;;;;;2.07;1.87;;;3.20;99.90;;;;;;4976997;28;20074;-76
2023/04/04 07:49:45;;;;;;;2.40;2.20;;;3.20;99.90;;;;;;4966143;28;20055;-76
2023/04/04 07:52:10;;;;;;;4.73;1.73;;;3.30;99.90;;;;;;4965250;28;20229;-76
2023/04/04 07:54:36;;;;;;;1.17;1.17;;;3.30;99.90;;;;;;4964654;28;20129;-76
2023/04/04 07:57:04;;;;;;;0.90;0.90;;;3.30;99.90;;;;;;4964695;28;20397;-76
2023/04/04 07:59:31;;;;;;;2.97;2.33;;;3.30;99.90;;;;;;4966060;28;20046;-76
2023/04/04 08:01:57;;;;;;;1.10;1.10;;;3.40;99.90;;;;;;4966110;28;20493;-76
2023/04/04 08:04:22;;;;;;;2.33;1.67;;;3.40;99.90;;;;;;4966047;28;20101;-77
2023/04/04 08:06:48;;;;;;;2.23;1.60;;;3.40;99.90;;;;;;4948252;28;20129;-77
2023/04/04 08:09:13;;;;;;;2.00;1.90;;;3.40;99.90;;;;;;4965966;28;20043;-76
2023/04/04 08:11:40;;;;;;;0.53;0.53;;;3.40;99.90;;;;;;4963447;28;20109;-76
2023/04/04 08:14:05;;;;;;;1.63;1.50;;;3.50;99.90;;;;;;4964989;28;20054;-76
2023/04/04 08:16:31;;;;;;;2.50;2.30;;;3.50;99.90;;;;;;4965127;28;20457;-77
2023/04/04 08:18:59;;;;;;;2.30;2.10;;;3.50;99.90;;;;;;4964479;28;20047;-77
2023/04/04 08:21:24;;;;;;;1.70;1.60;;;3.60;99.90;;;;;;4948213;28;20073;-76
2023/04/04 08:23:50;;;;;;;2.23;2.03;;;3.60;99.90;;;;;;4966134;28;20473;-76
2023/04/04 08:26:16;;;;;;;1.30;1.30;;;3.60;99.90;;;;;;4965413;28;20397;-76
2023/04/04 08:28:41;;;;;;;1.90;1.43;;;3.70;99.90;;;;;;4963030;28;20126;-77
2023/04/04 08:31:07;;;;;;;1.97;1.60;;;3.70;99.90;;;;;;4965615;28;20042;-76
2023/04/04 08:33:33;;;;;;;1.53;1.53;;;3.70;99.90;;;;;;4965190;28;20086;-76
2023/04/04 08:35:59;;;;;;;1.87;1.80;;;3.80;99.90;;;;;;4965520;28;20516;-76
2023/04/04 08:38:24;;;;;;;2.00;1.90;;;3.80;99.90;;;;;;4963914;28;20054;-77
2023/04/04 08:40:50;;;;;;;2.93;2.77;;;3.90;99.90;;;;;;4965356;28;20565;-76
2023/04/04 08:43:16;;;;;;;1.73;1.63;;;3.90;99.90;;;;;;4964618;28;20571;-76
2023/04/04 08:45:45;;;;;;;1.47;1.47;;;3.90;99.90;;;;;;4963606;28;20098;-76
2023/04/04 08:48:14;;;;;;;2.00;1.90;;;3.90;99.90;;;;;;4978425;28;20042;-76
2023/04/04 08:50:41;;;;;;;1.90;1.47;;;3.90;99.90;;;;;;4983432;28;20039;-76
2023/04/04 08:53:09;;;;;;;6.00;2.03;;;3.90;99.90;;;;;;4985226;28;20436;-76
2023/04/04 08:55:35;;;;;;;3.97;1.88;;;4.00;99.90;;;;;;4984736;28;20112;-76
2023/04/04 08:58:01;;;;;;;1.40;1.40;;;4.00;99.90;;;;;;4983634;28;20046;-77
2023/04/04 09:00:27;;;;;;;3.17;1.53;;;4.00;99.90;;;;;;4982634;28;20054;-77
2023/04/04 09:03:08;;;;;;;1.30;1.20;;;4.10;99.90;;;;;;4984326;28;20085;-76
2023/04/04 09:05:34;;;;;;;2.22;2.03;;;4.10;99.90;;;;;;4984513;28;20373;-76
2023/04/04 09:08:00;;;;;;;2.78;2.05;;;4.20;99.90;;;;;;4983285;28;20058;-76
2023/04/04 09:10:26;;;;;;;1.35;1.25;;;4.20;99.90;;;;;;4967009;28;20391;-76
2023/04/04 09:12:53;;;;;;;1.23;1.13;;;4.20;99.90;;;;;;4982081;28;20057;-77
2023/04/04 09:15:19;;;;;;;1.67;1.57;;;4.20;99.90;;;;;;4983054;28;20524;-77
2023/04/04 09:17:44;;;;;;;2.78;2.00;;;4.30;99.90;;;;;;4983833;28;20060;-76
2023/04/04 09:20:42;;;;;;;0.93;0.77;;;4.30;99.90;;;;;;4984546;28;20049;-76
2023/04/04 09:23:12;;;;;;;1.70;1.23;;;4.30;99.90;;;;;;4984406;28;20046;-76
2023/04/04 09:25:45;;;;;;;2.08;1.98;;;4.40;99.90;;;;;;4984246;28;20521;-76
2023/04/04 09:28:13;;;;;;;3.22;2.72;;;4.40;99.90;;;;;;4983132;28;20132;-77
2023/04/04 09:30:38;;;;;;;0.70;0.70;;;4.50;99.90;;;;;;4982755;28;20373;-76
2023/04/04 09:33:05;;;;;;;1.63;1.53;;;4.60;99.90;;;;;;4982696;28;20068;-76
2023/04/04 09:35:40;;;;;;;3.42;1.77;;;4.60;99.90;;;;;;4982320;28;20463;-76
2023/04/04 09:38:06;;;;;;;4.97;1.05;;;4.60;99.90;;;;;;4982618;28;20048;-76
2023/04/04 09:40:35;;;;;;;5.10;1.67;;;4.70;99.90;;;;;;4982480;28;20038;-76
2023/04/04 09:43:02;;;;;;;2.00;1.85;;;4.70;99.90;;;;;;4981528;28;20055;-76
2023/04/04 09:45:33;;;;;;;2.03;1.92;;;4.80;99.90;;;;;;4983890;28;20034;-77
2023/04/04 09:47:59;;;;;;;1.05;1.05;;;4.80;99.90;;;;;;4971037;28;20039;-77
2023/04/04 09:50:27;;;;;;;1.42;0.98;;;4.80;99.90;;;;;;4962986;28;20070;-76
2023/04/04 09:52:57;;;;;;;0.70;0.70;;;4.90;99.90;;;;;;4963304;28;20039;-77
2023/04/04 09:55:31;;;;;;;0.90;0.90;;;5.00;99.90;;;;;;4963214;28;20497;-76
2023/04/04 09:57:57;;;;;;;2.47;2.28;;;5.00;99.90;;;;;;4963217;28;20560;-77
2023/04/04 10:00:28;;;;;;;1.33;1.23;;;5.00;99.90;;;;;;4963239;28;20122;-77
2023/04/04 10:02:57;;;;;;;2.40;2.15;;;5.00;99.90;;;;;;4962358;28;20518;-77
2023/04/04 10:05:23;;;;;;;0.75;0.75;;;5.10;99.90;;;;;;4964352;28;20051;-77
2023/04/04 10:07:48;;;;;;;1.63;1.38;;;5.10;99.90;;;;;;4962949;28;20128;-77
2023/04/04 10:10:14;;;;;;;1.35;1.23;;;5.20;99.90;;;;;;4963323;28;20055;-76
2023/04/04 10:12:44;;;;;;;1.15;1.05;;;5.10;99.90;;;;;;4945876;28;20558;-77
2023/04/04 10:15:10;;;;;;;2.67;1.05;;;5.10;99.90;;;;;;4964406;28;20397;-77
2023/04/04 10:17:40;;;;;;;6.35;1.40;;;5.20;99.90;;;;;;4975286;28;20139;-76
2023/04/04 10:20:08;;;;;;;2.13;1.55;;;5.30;99.90;;;;;;4982486;28;20042;-79
2023/04/04 10:22:35;;;;;;;1.65;1.60;;;5.40;99.90;;;;;;4977471;28;20062;-78
2023/04/04 10:25:02;;;;;;;1.27;1.23;;;5.40;99.90;;;;;;4978074;28;20258;-75
2023/04/04 10:27:28;;;;;;;1.58;1.48;;;5.50;99.90;;;;;;4981079;28;20043;-76
2023/04/04 10:29:53;;;;;;;1.55;1.52;;;5.50;99.90;;;;;;4981820;28;20038;-76
2023/04/04 10:32:32;;;;;;;0.85;0.85;;;5.60;99.90;;;;;;4963483;28;20490;-78
2023/04/04 10:35:09;;;;;;;2.38;1.60;;;5.60;99.90;;;;;;4963692;28;20042;-77
2023/04/04 10:37:43;;;;;;;1.88;1.45;;;5.60;99.90;;;;;;4971291;28;20062;-77
2023/04/04 10:40:15;;;;;;;1.25;1.15;;;5.70;99.90;;;;;;4984155;28;20061;-77
2023/04/04 10:42:45;;;;;;;2.00;1.40;;;5.70;99.90;;;;;;4981443;28;20041;-76
2023/04/04 10:45:13;;;;;;;5.03;2.22;;;5.70;99.90;;;;;;4982504;28;20551;-77
2023/04/04 10:47:40;;;;;;;1.08;1.08;;;5.80;99.90;;;;;;4982431;28;20058;-77
2023/04/04 10:50:09;;;;;;;2.80;1.10;;;5.80;99.90;;;;;;4987103;28;20559;-77
2023/04/04 10:52:36;;;;;;;1.00;1.00;;;5.90;99.90;;;;;;4986440;28;20279;-76
2023/04/04 10:55:07;;;;;;;2.30;1.42;;;5.90;99.90;;;;;;4987074;28;20612;-77
2023/04/04 10:57:37;;;;;;;2.70;2.42;;;5.90;99.90;;;;;;4985733;28;20130;-77
2023/04/04 11:00:11;;;;;;;1.08;0.80;;;6.00;99.90;;;;;;4986154;28;20216;-78
2023/04/04 11:02:58;;;;;;;2.13;1.00;;;6.00;99.90;;;;;;4986809;28;20120;-78
2023/04/04 11:05:30;;;;;;;1.25;1.08;;;6.10;99.90;;;;;;4987117;28;20053;-77
2023/04/04 11:08:06;;;;;;;;;;;6.20;99.90;;;;;;4987464;28;20043;-76
2023/04/04 11:10:43;;;;;;;3.25;3.00;;;6.20;99.90;;;;;;4982336;28;19928;-77
2023/04/04 11:13:28;;;;;;;1.70;1.48;;;6.30;99.90;;;;;;4973145;28;20046;-77
2023/04/04 11:15:59;;;;;;;2.97;1.42;;;6.30;99.90;;;;;;4984252;28;20327;-77
2023/04/04 11:18:31;;;;;;;1.75;1.65;;;6.40;99.90;;;;;;4984427;28;20092;-77
2023/04/04 11:21:01;;;;;;;1.00;1.00;;;6.40;99.90;;;;;;4986928;28;20057;-77
2023/04/04 11:23:37;;;;;;;2.15;1.98;;;6.50;99.90;;;;;;4985203;28;20285;-76
2023/04/04 11:26:06;;;;;;;4.10;2.53;;;6.40;99.90;;;;;;4985822;28;20048;-76
2023/04/04 11:28:35;;;;;;;3.92;1.88;;;6.50;99.90;;;;;;4949322;28;20046;-77
2023/04/04 11:31:21;;;;;;;1.58;1.48;;;6.60;99.90;;;;;;4984898;28;20046;-77
2023/04/04 11:34:11;;;;;;;1.08;1.02;;;6.60;99.90;;;;;;4985538;28;20050;-77
2023/04/04 11:36:36;;;;;;;1.52;1.42;;;6.80;99.90;;;;;;4985946;28;20046;-78
2023/04/04 11:39:11;;;;;;;3.85;2.58;;;6.80;99.90;;;;;;4985240;28;20049;-77
2023/04/04 11:41:52;;;;;;;2.00;1.35;;;6.80;99.90;;;;;;4985695;28;20456;-78
2023/04/04 11:44:23;;;;;;;0.93;0.93;;;6.90;99.90;;;;;;4986160;28;20489;-78
2023/04/04 11:46:55;;;;;;;1.60;1.17;;;7.00;99.90;;;;;;4985121;28;20042;-78
2023/04/04 11:49:29;;;;;;;8.57;2.33;;;7.00;99.90;;;;;;4968091;28;20053;-78
2023/04/04 11:51:56;;;;;;;1.50;1.40;;;7.10;99.90;;;;;;4984880;28;20054;-78
2023/04/04 11:54:22;;;;;;;0.88;0.80;;;7.10;99.90;;;;;;4980156;28;20050;-77
2023/04/04 11:56:47;;;;;;;1.50;1.05;;;7.10;99.90;;;;;;4980636;28;20055;-76
2023/04/04 11:59:20;;;;;;;2.58;1.05;;;7.20;99.90;;;;;;4963003;28;20058;-76
2023/04/04 12:01:47;;;;;;;4.60;1.30;;;7.20;99.90;;;;;;4968754;28;20116;-76
2023/04/04 12:04:17;;;;;;;2.28;1.33;;;7.20;99.90;;;;;;4981122;28;20121;-76
2023/04/04 12:06:43;;;;;;;1.65;0.98;;;7.30;99.90;;;;;;4984884;28;20090;-76
2023/04/04 12:09:11;;;;;;;0.90;0.90;;;7.30;99.90;;;;;;4979707;28;20094;-76
2023/04/04 12:11:37;;;;;;;0.82;0.82;;;7.30;99.90;;;;;;4983659;28;20062;-76
2023/04/04 12:14:03;;;;;;;1.50;1.38;;;7.40;99.90;;;;;;4984626;28;20133;-76
2023/04/04 12:16:29;;;;;;;14.48;2.17;;;7.40;99.90;;;;;;4983201;28;20715;-76
2023/04/04 12:19:01;;;;;;;1.70;1.58;;;7.50;99.90;;;;;;4986283;28;20062;-76
2023/04/04 12:21:26;;;;;;;3.13;2.20;;;7.50;99.90;;;;;;4985342;28;20054;-76
2023/04/04 12:23:54;;;;;;;0.95;0.90;;;7.50;99.90;;;;;;4968032;28;20050;-76
2023/04/04 12:26:20;;;;;;;1.65;1.10;;;7.50;99.90;;;;;;4983362;28;20046;-76
2023/04/04 12:28:46;;;;;;;1.50;1.40;;;7.50;99.90;;;;;;4982383;28;20038;-78
2023/04/04 12:31:13;;;;;;;3.20;1.77;;;7.50;99.90;;;;;;4979985;28;20508;-76
2023/04/04 12:33:41;;;;;;;1.67;0.82;;;7.60;99.90;;;;;;4984708;28;20068;-76
2023/04/04 12:36:07;;;;;;;1.45;1.30;;;7.60;99.90;;;;;;4984943;28;20043;-77
2023/04/04 12:38:33;;;;;;;2.05;0.90;;;7.60;99.90;;;;;;4985246;28;20042;-77
2023/04/04 12:40:59;;;;;;;2.45;1.67;;;7.60;99.90;;;;;;4982966;28;20042;-77
2023/04/04 12:43:30;;;;;;;9.02;1.70;;;7.60;99.90;;;;;;4982745;28;20039;-78
2023/04/04 12:45:56;;;;;;;2.38;1.00;;;7.70;99.90;;;;;;4983206;28;20518;-77
2023/04/04 12:48:27;;;;;;;2.33;1.40;;;7.70;99.90;;;;;;4983399;28;20088;-76
2023/04/04 12:50:57;;;;;;;3.42;1.58;;;7.70;99.90;;;;;;4983333;28;20370;-76
2023/04/04 12:53:25;;;;;;;1.17;1.08;;;7.70;99.90;;;;;;4985346;28;20042;-77
2023/04/04 12:55:52;;;;;;;2.45;1.20;;;7.80;99.90;;;;;;4983818;28;20084;-77
2023/04/04 12:58:21;;;;;;;1.85;1.45;;;7.80;99.90;;;;;;4985153;28;20134;-77